sensor_id;sensor_type;location;lat;lon;timestamp;temperature;humidity
46440;DHT22;32138;50.966;6.968;2024-02-15T00:01:20;12.30;99.90
46440;DHT22;32138;50.966;6.968;2024-02-15T00:02:50;12.30;99.90
46440;DHT22;32138;50.966;6.968;2024-02-15T00:04:21;12.30;99.90
46440;DHT22;32138;50.966;6.968;2024-02-15T00:05:52;12.30;99.90
46440;DHT22;32138;50.966;6.968;2024-02-15T00:07:23;12.40;99.90
46440;DHT22;32138;50.966;6.968;2024-02-15T00:08:53;12.40;99.90
46440;DHT22;32138;50.966;6.968;2024-02-15T00:10:24;12.30;99.90
46440;DHT22;32138;50.966;6.968;2024-02-15T00:11:56;12.40;99.90
46440;DHT22;32138;50.966;6.968;2024-02-15T00:13:27;12.50;99.90
46440;DHT22;32138;50.966;6.968;2024-02-15T00:14:57;12.40;99.90
46440;DHT22;32138;50.966;6.968;2024-02-15T00:16:28;12.40;99.90
46440;DHT22;32138;50.966;6.968;2024-02-15T00:18:00;12.40;99.90
46440;DHT22;32138;50.966;6.968;2024-02-15T00:19:30;12.30;99.90
46440;DHT22;32138;50.966;6.968;2024-02-15T00:21:01;12.20;99.90
46440;DHT22;32138;50.966;6.968;2024-02-15T00:22:32;12.20;99.90
46440;DHT22;32138;50.966;6.968;2024-02-15T00:24:03;12.30;99.90
46440;DHT22;32138;50.966;6.968;2024-02-15T00:25:34;12.30;99.90
46440;DHT22;32138;50.966;6.968;2024-02-15T00:27:06;12.30;99.90
46440;DHT22;32138;50.966;6.968;2024-02-15T00:28:36;12.30;99.90
46440;DHT22;32138;50.966;6.968;2024-02-15T00:30:08;12.30;99.90
46440;DHT22;32138;50.966;6.968;2024-02-15T00:31:39;12.20;99.90
46440;DHT22;32138;50.966;6.968;2024-02-15T00:33:10;12.40;99.90
46440;DHT22;32138;50.966;6.968;2024-02-15T00:34:41;12.40;99.90
46440;DHT22;32138;50.966;6.968;2024-02-15T00:36:12;12.40;99.90
46440;DHT22;32138;50.966;6.968;2024-02-15T00:37:42;12.40;99.90
46440;DHT22;32138;50.966;6.968;2024-02-15T00:39:13;12.30;99.90
46440;DHT22;32138;50.966;6.968;2024-02-15T00:40:44;12.40;99.90
46440;DHT22;32138;50.966;6.968;2024-02-15T00:42:16;12.30;99.90
46440;DHT22;32138;50.966;6.968;2024-02-15T00:43:47;12.30;99.90
46440;DHT22;32138;50.966;6.968;2024-02-15T00:45:18;12.40;99.90
46440;DHT22;32138;50.966;6.968;2024-02-15T00:46:49;12.50;99.90
46440;DHT22;32138;50.966;6.968;2024-02-15T00:48:19;12.60;99.90
46440;DHT22;32138;50.966;6.968;2024-02-15T00:49:50;12.50;99.90
46440;DHT22;32138;50.966;6.968;2024-02-15T00:51:21;12.40;99.90
46440;DHT22;32138;50.966;6.968;2024-02-15T00:52:52;12.40;99.90
46440;DHT22;32138;50.966;6.968;2024-02-15T00:54:22;12.40;99.90
46440;DHT22;32138;50.966;6.968;2024-02-15T00:55:53;12.40;99.90
46440;DHT22;32138;50.966;6.968;2024-02-15T00:57:26;12.40;99.90
46440;DHT22;32138;50.966;6.968;2024-02-15T00:58:57;12.60;99.90
46440;DHT22;32138;50.966;6.968;2024-02-15T01:00:29;12.60;99.90
46440;DHT22;32138;50.966;6.968;2024-02-15T01:01:59;12.50;99.90
46440;DHT22;32138;50.966;6.968;2024-02-15T01:03:30;12.50;99.90
46440;DHT22;32138;50.966;6.968;2024-02-15T01:05:02;12.50;99.90
46440;DHT22;32138;50.966;6.968;2024-02-15T01:06:33;12.50;99.90
46440;DHT22;32138;50.966;6.968;2024-02-15T01:08:04;12.50;99.90
46440;DHT22;32138;50.966;6.968;2024-02-15T01:09:35;12.60;99.90
46440;DHT22;32138;50.966;6.968;2024-02-15T01:11:06;12.50;99.90
46440;DHT22;32138;50.966;6.968;2024-02-15T01:12:38;12.50;99.90
46440;DHT22;32138;50.966;6.968;2024-02-15T01:14:08;12.50;99.90
46440;DHT22;32138;50.966;6.968;2024-02-15T01:15:40;12.50;99.90
46440;DHT22;32138;50.966;6.968;2024-02-15T01:17:11;12.40;99.90
46440;DHT22;32138;50.966;6.968;2024-02-15T01:18:42;12.40;99.90
46440;DHT22;32138;50.966;6.968;2024-02-15T01:20:13;12.50;99.90
46440;DHT22;32138;50.966;6.968;2024-02-15T01:21:44;12.50;99.90
46440;DHT22;32138;50.966;6.968;2024-02-15T01:23:16;12.50;99.90
46440;DHT22;32138;50.966;6.968;2024-02-15T01:24:47;12.50;99.90
46440;DHT22;32138;50.966;6.968;2024-02-15T01:26:18;12.50;99.90
46440;DHT22;32138;50.966;6.968;2024-02-15T01:27:49;12.50;99.90
46440;DHT22;32138;50.966;6.968;2024-02-15T01:29:19;12.50;99.90
46440;DHT22;32138;50.966;6.968;2024-02-15T01:30:51;12.60;99.90
46440;DHT22;32138;50.966;6.968;2024-02-15T01:32:21;12.80;99.90
46440;DHT22;32138;50.966;6.968;2024-02-15T01:33:52;12.80;99.90
46440;DHT22;32138;50.966;6.968;2024-02-15T01:35:23;12.70;99.90
46440;DHT22;32138;50.966;6.968;2024-02-15T01:36:54;12.70;99.90
46440;DHT22;32138;50.966;6.968;2024-02-15T01:38:25;12.60;99.90
46440;DHT22;32138;50.966;6.968;2024-02-15T01:39:56;12.50;99.90
46440;DHT22;32138;50.966;6.968;2024-02-15T01:41:27;12.60;99.90
46440;DHT22;32138;50.966;6.968;2024-02-15T01:42:57;12.50;99.90
46440;DHT22;32138;50.966;6.968;2024-02-15T01:44:31;12.50;99.90
46440;DHT22;32138;50.966;6.968;2024-02-15T01:46:08;12.40;99.90
46440;DHT22;32138;50.966;6.968;2024-02-15T01:47:39;12.50;99.90
46440;DHT22;32138;50.966;6.968;2024-02-15T01:49:11;12.40;99.90
46440;DHT22;32138;50.966;6.968;2024-02-15T01:50:42;12.50;99.90
46440;DHT22;32138;50.966;6.968;2024-02-15T01:52:13;12.40;99.90
46440;DHT22;32138;50.966;6.968;2024-02-15T01:53:45;12.40;99.90
46440;DHT22;32138;50.966;6.968;2024-02-15T01:55:17;12.30;99.90
46440;DHT22;32138;50.966;6.968;2024-02-15T01:56:48;12.30;99.90
46440;DHT22;32138;50.966;6.968;2024-02-15T01:58:19;12.40;99.90
46440;DHT22;32138;50.966;6.968;2024-02-15T01:59:53;12.50;99.90
46440;DHT22;32138;50.966;6.968;2024-02-15T02:01:24;12.50;99.90
46440;DHT22;32138;50.966;6.968;2024-02-15T02:02:56;12.50;99.90
46440;DHT22;32138;50.966;6.968;2024-02-15T02:04:32;12.60;99.90
46440;DHT22;32138;50.966;6.968;2024-02-15T02:06:03;12.60;99.90
46440;DHT22;32138;50.966;6.968;2024-02-15T02:07:35;12.40;99.90
46440;DHT22;32138;50.966;6.968;2024-02-15T02:09:10;12.60;99.90
46440;DHT22;32138;50.966;6.968;2024-02-15T02:10:43;12.50;99.90
46440;DHT22;32138;50.966;6.968;2024-02-15T02:12:14;12.50;99.90
46440;DHT22;32138;50.966;6.968;2024-02-15T02:13:45;12.50;99.90
46440;DHT22;32138;50.966;6.968;2024-02-15T02:15:16;12.50;99.90
46440;DHT22;32138;50.966;6.968;2024-02-15T02:16:47;12.40;99.90
46440;DHT22;32138;50.966;6.968;2024-02-15T02:18:18;12.40;99.90
46440;DHT22;32138;50.966;6.968;2024-02-15T02:19:48;12.30;99.90
46440;DHT22;32138;50.966;6.968;2024-02-15T02:21:23;12.30;99.90
46440;DHT22;32138;50.966;6.968;2024-02-15T02:23:04;12.30;99.90
46440;DHT22;32138;50.966;6.968;2024-02-15T02:26:36;12.30;99.90
46440;DHT22;32138;50.966;6.968;2024-02-15T02:28:07;12.40;99.90
46440;DHT22;32138;50.966;6.968;2024-02-15T02:29:44;12.40;99.90
46440;DHT22;32138;50.966;6.968;2024-02-15T02:31:16;12.30;99.90
46440;DHT22;32138;50.966;6.968;2024-02-15T02:32:47;12.30;99.90
46440;DHT22;32138;50.966;6.968;2024-02-15T02:34:18;12.30;99.90
46440;DHT22;32138;50.966;6.968;2024-02-15T02:35:49;12.40;99.90
46440;DHT22;32138;50.966;6.968;2024-02-15T02:37:20;12.30;99.90
46440;DHT22;32138;50.966;6.968;2024-02-15T02:38:51;12.40;99.90
46440;DHT22;32138;50.966;6.968;2024-02-15T02:40:22;12.40;99.90
46440;DHT22;32138;50.966;6.968;2024-02-15T02:41:53;12.40;99.90
46440;DHT22;32138;50.966;6.968;2024-02-15T02:43:23;12.30;99.90
46440;DHT22;32138;50.966;6.968;2024-02-15T02:44:54;12.30;99.90
46440;DHT22;32138;50.966;6.968;2024-02-15T02:46:25;12.30;99.90
46440;DHT22;32138;50.966;6.968;2024-02-15T02:47:56;12.30;99.90
46440;DHT22;32138;50.966;6.968;2024-02-15T02:49:26;12.20;99.90
46440;DHT22;32138;50.966;6.968;2024-02-15T02:50:57;12.30;99.90
46440;DHT22;32138;50.966;6.968;2024-02-15T02:52:28;12.30;99.90
46440;DHT22;32138;50.966;6.968;2024-02-15T02:53:59;12.20;99.90
46440;DHT22;32138;50.966;6.968;2024-02-15T02:55:30;12.20;99.90
46440;DHT22;32138;50.966;6.968;2024-02-15T02:57:01;12.30;99.90
46440;DHT22;32138;50.966;6.968;2024-02-15T02:58:31;12.20;99.90
46440;DHT22;32138;50.966;6.968;2024-02-15T03:00:06;12.20;99.90
46440;DHT22;32138;50.966;6.968;2024-02-15T03:01:38;12.20;99.90
46440;DHT22;32138;50.966;6.968;2024-02-15T03:03:10;12.30;99.90
46440;DHT22;32138;50.966;6.968;2024-02-15T03:04:40;12.30;99.90
46440;DHT22;32138;50.966;6.968;2024-02-15T03:06:11;12.30;99.90
46440;DHT22;32138;50.966;6.968;2024-02-15T03:07:42;12.30;99.90
46440;DHT22;32138;50.966;6.968;2024-02-15T03:09:12;12.30;99.90
46440;DHT22;32138;50.966;6.968;2024-02-15T03:10:44;12.30;99.90
46440;DHT22;32138;50.966;6.968;2024-02-15T03:12:15;12.30;99.90
46440;DHT22;32138;50.966;6.968;2024-02-15T03:13:49;12.30;99.90
46440;DHT22;32138;50.966;6.968;2024-02-15T03:15:19;12.20;99.90
46440;DHT22;32138;50.966;6.968;2024-02-15T03:16:50;12.20;99.90
46440;DHT22;32138;50.966;6.968;2024-02-15T03:18:21;12.20;99.90
46440;DHT22;32138;50.966;6.968;2024-02-15T03:19:53;12.20;99.90
46440;DHT22;32138;50.966;6.968;2024-02-15T03:21:26;12.20;99.90
46440;DHT22;32138;50.966;6.968;2024-02-15T03:22:57;12.20;99.90
46440;DHT22;32138;50.966;6.968;2024-02-15T03:24:29;12.20;99.90
46440;DHT22;32138;50.966;6.968;2024-02-15T03:26:01;12.30;99.90
46440;DHT22;32138;50.966;6.968;2024-02-15T03:27:35;12.30;99.90
46440;DHT22;32138;50.966;6.968;2024-02-15T03:29:07;12.30;99.90
46440;DHT22;32138;50.966;6.968;2024-02-15T03:30:38;12.20;99.90
46440;DHT22;32138;50.966;6.968;2024-02-15T03:32:09;12.20;99.90
46440;DHT22;32138;50.966;6.968;2024-02-15T03:33:41;12.20;99.90
46440;DHT22;32138;50.966;6.968;2024-02-15T03:35:12;12.20;99.90
46440;DHT22;32138;50.966;6.968;2024-02-15T03:36:44;12.20;99.90
46440;DHT22;32138;50.966;6.968;2024-02-15T03:38:16;12.20;99.90
46440;DHT22;32138;50.966;6.968;2024-02-15T03:39:46;12.30;99.90
46440;DHT22;32138;50.966;6.968;2024-02-15T03:41:18;12.20;99.90
46440;DHT22;32138;50.966;6.968;2024-02-15T03:42:48;12.30;99.90
46440;DHT22;32138;50.966;6.968;2024-02-15T03:44:23;12.30;99.90
46440;DHT22;32138;50.966;6.968;2024-02-15T03:45:56;12.30;99.90
46440;DHT22;32138;50.966;6.968;2024-02-15T03:47:28;12.30;99.90
46440;DHT22;32138;50.966;6.968;2024-02-15T03:48:59;12.40;99.90
46440;DHT22;32138;50.966;6.968;2024-02-15T03:50:30;12.30;99.90
46440;DHT22;32138;50.966;6.968;2024-02-15T03:52:03;12.30;99.90
46440;DHT22;32138;50.966;6.968;2024-02-15T03:53:33;12.40;99.90
46440;DHT22;32138;50.966;6.968;2024-02-15T03:55:05;12.30;99.90
46440;DHT22;32138;50.966;6.968;2024-02-15T03:56:46;12.40;99.90
46440;DHT22;32138;50.966;6.968;2024-02-15T03:58:21;12.40;99.90
46440;DHT22;32138;50.966;6.968;2024-02-15T03:59:52;12.30;99.90
46440;DHT22;32138;50.966;6.968;2024-02-15T04:01:24;12.30;99.90
46440;DHT22;32138;50.966;6.968;2024-02-15T04:02:57;12.30;99.90
46440;DHT22;32138;50.966;6.968;2024-02-15T04:04:28;12.30;99.90
46440;DHT22;32138;50.966;6.968;2024-02-15T04:06:01;12.20;99.90
46440;DHT22;32138;50.966;6.968;2024-02-15T04:07:32;12.30;99.90
46440;DHT22;32138;50.966;6.968;2024-02-15T04:09:02;12.20;99.90
46440;DHT22;32138;50.966;6.968;2024-02-15T04:10:33;12.30;99.90
46440;DHT22;32138;50.966;6.968;2024-02-15T04:12:04;12.30;99.90
46440;DHT22;32138;50.966;6.968;2024-02-15T04:13:37;12.40;99.90
46440;DHT22;32138;50.966;6.968;2024-02-15T04:15:08;12.40;99.90
46440;DHT22;32138;50.966;6.968;2024-02-15T04:16:42;12.30;99.90
46440;DHT22;32138;50.966;6.968;2024-02-15T04:18:14;12.20;99.90
46440;DHT22;32138;50.966;6.968;2024-02-15T04:19:44;12.20;99.90
46440;DHT22;32138;50.966;6.968;2024-02-15T04:21:16;12.20;99.90
46440;DHT22;32138;50.966;6.968;2024-02-15T04:22:50;12.20;99.90
46440;DHT22;32138;50.966;6.968;2024-02-15T04:24:21;12.30;99.90
46440;DHT22;32138;50.966;6.968;2024-02-15T04:25:52;12.30;99.90
46440;DHT22;32138;50.966;6.968;2024-02-15T04:27:24;12.30;99.90
46440;DHT22;32138;50.966;6.968;2024-02-15T04:28:56;12.30;99.90
46440;DHT22;32138;50.966;6.968;2024-02-15T04:30:27;12.30;99.90
46440;DHT22;32138;50.966;6.968;2024-02-15T04:31:58;12.30;99.90
46440;DHT22;32138;50.966;6.968;2024-02-15T04:33:28;12.20;99.90
46440;DHT22;32138;50.966;6.968;2024-02-15T04:35:00;12.30;99.90
46440;DHT22;32138;50.966;6.968;2024-02-15T04:36:31;12.30;99.90
46440;DHT22;32138;50.966;6.968;2024-02-15T04:38:04;12.20;99.90
46440;DHT22;32138;50.966;6.968;2024-02-15T04:39:38;12.20;99.90
46440;DHT22;32138;50.966;6.968;2024-02-15T04:41:09;12.30;99.90
46440;DHT22;32138;50.966;6.968;2024-02-15T04:42:40;12.40;99.90
46440;DHT22;32138;50.966;6.968;2024-02-15T04:44:13;12.30;99.90
46440;DHT22;32138;50.966;6.968;2024-02-15T04:45:46;12.30;99.90
46440;DHT22;32138;50.966;6.968;2024-02-15T04:47:17;12.30;99.90
46440;DHT22;32138;50.966;6.968;2024-02-15T04:48:48;12.30;99.90
46440;DHT22;32138;50.966;6.968;2024-02-15T04:50:22;12.30;99.90
46440;DHT22;32138;50.966;6.968;2024-02-15T04:51:53;12.20;99.90
46440;DHT22;32138;50.966;6.968;2024-02-15T04:53:24;12.20;99.90
46440;DHT22;32138;50.966;6.968;2024-02-15T04:54:55;12.20;99.90
46440;DHT22;32138;50.966;6.968;2024-02-15T04:56:28;12.30;99.90
46440;DHT22;32138;50.966;6.968;2024-02-15T04:57:59;12.30;99.90
46440;DHT22;32138;50.966;6.968;2024-02-15T04:59:30;12.30;99.90
46440;DHT22;32138;50.966;6.968;2024-02-15T05:01:01;12.30;99.90
46440;DHT22;32138;50.966;6.968;2024-02-15T05:02:33;12.30;99.90
46440;DHT22;32138;50.966;6.968;2024-02-15T05:04:07;12.20;99.90
46440;DHT22;32138;50.966;6.968;2024-02-15T05:05:37;12.30;99.90
46440;DHT22;32138;50.966;6.968;2024-02-15T05:07:10;12.30;99.90
46440;DHT22;32138;50.966;6.968;2024-02-15T05:08:41;12.30;99.90
46440;DHT22;32138;50.966;6.968;2024-02-15T05:10:15;12.40;99.90
46440;DHT22;32138;50.966;6.968;2024-02-15T05:11:46;12.30;99.90
46440;DHT22;32138;50.966;6.968;2024-02-15T05:13:18;12.40;99.90
46440;DHT22;32138;50.966;6.968;2024-02-15T05:14:49;12.40;99.90
46440;DHT22;32138;50.966;6.968;2024-02-15T05:16:20;12.40;99.90
46440;DHT22;32138;50.966;6.968;2024-02-15T05:17:51;12.40;99.90
46440;DHT22;32138;50.966;6.968;2024-02-15T05:19:22;12.40;99.90
46440;DHT22;32138;50.966;6.968;2024-02-15T05:20:54;12.40;99.90
46440;DHT22;32138;50.966;6.968;2024-02-15T05:22:25;12.50;99.90
46440;DHT22;32138;50.966;6.968;2024-02-15T05:23:59;12.40;99.90
46440;DHT22;32138;50.966;6.968;2024-02-15T05:25:30;12.40;99.90
46440;DHT22;32138;50.966;6.968;2024-02-15T05:27:03;12.30;99.90
46440;DHT22;32138;50.966;6.968;2024-02-15T05:28:35;12.40;99.90
46440;DHT22;32138;50.966;6.968;2024-02-15T05:30:06;12.40;99.90
46440;DHT22;32138;50.966;6.968;2024-02-15T05:31:37;12.40;99.90
46440;DHT22;32138;50.966;6.968;2024-02-15T05:33:08;12.50;99.90
46440;DHT22;32138;50.966;6.968;2024-02-15T05:34:40;12.40;99.90
46440;DHT22;32138;50.966;6.968;2024-02-15T05:36:11;12.40;99.90
46440;DHT22;32138;50.966;6.968;2024-02-15T05:37:43;12.40;99.90
46440;DHT22;32138;50.966;6.968;2024-02-15T05:39:14;12.30;99.90
46440;DHT22;32138;50.966;6.968;2024-02-15T05:40:45;12.30;99.90
46440;DHT22;32138;50.966;6.968;2024-02-15T05:42:15;12.40;99.90
46440;DHT22;32138;50.966;6.968;2024-02-15T05:43:47;12.40;99.90
46440;DHT22;32138;50.966;6.968;2024-02-15T05:46:57;12.40;99.90
46440;DHT22;32138;50.966;6.968;2024-02-15T05:48:27;12.50;99.90
46440;DHT22;32138;50.966;6.968;2024-02-15T05:49:58;12.50;99.90
46440;DHT22;32138;50.966;6.968;2024-02-15T05:51:29;12.50;99.90
46440;DHT22;32138;50.966;6.968;2024-02-15T05:53:01;12.50;99.90
46440;DHT22;32138;50.966;6.968;2024-02-15T05:54:31;12.40;99.90
46440;DHT22;32138;50.966;6.968;2024-02-15T05:56:05;12.50;99.90
46440;DHT22;32138;50.966;6.968;2024-02-15T05:57:37;12.50;99.90
46440;DHT22;32138;50.966;6.968;2024-02-15T05:59:07;12.50;99.90
46440;DHT22;32138;50.966;6.968;2024-02-15T06:00:41;12.40;99.90
46440;DHT22;32138;50.966;6.968;2024-02-15T06:02:12;12.40;99.90
46440;DHT22;32138;50.966;6.968;2024-02-15T06:03:42;12.40;99.90
46440;DHT22;32138;50.966;6.968;2024-02-15T06:05:15;12.50;99.90
46440;DHT22;32138;50.966;6.968;2024-02-15T06:06:47;12.50;99.90
46440;DHT22;32138;50.966;6.968;2024-02-15T06:08:20;12.40;99.90
46440;DHT22;32138;50.966;6.968;2024-02-15T06:09:53;12.40;99.90
46440;DHT22;32138;50.966;6.968;2024-02-15T06:11:24;12.40;99.90
46440;DHT22;32138;50.966;6.968;2024-02-15T06:12:55;12.40;99.90
46440;DHT22;32138;50.966;6.968;2024-02-15T06:14:27;12.40;99.90
46440;DHT22;32138;50.966;6.968;2024-02-15T06:15:58;12.40;99.90
46440;DHT22;32138;50.966;6.968;2024-02-15T06:17:28;12.40;99.90
46440;DHT22;32138;50.966;6.968;2024-02-15T06:18:59;12.40;99.90
46440;DHT22;32138;50.966;6.968;2024-02-15T06:20:30;12.40;99.90
46440;DHT22;32138;50.966;6.968;2024-02-15T06:22:03;12.40;99.90
46440;DHT22;32138;50.966;6.968;2024-02-15T06:23:35;12.40;99.90
46440;DHT22;32138;50.966;6.968;2024-02-15T06:25:06;12.40;99.90
46440;DHT22;32138;50.966;6.968;2024-02-15T06:26:37;12.30;99.90
46440;DHT22;32138;50.966;6.968;2024-02-15T06:28:09;12.40;99.90
46440;DHT22;32138;50.966;6.968;2024-02-15T06:29:58;12.40;99.90
46440;DHT22;32138;50.966;6.968;2024-02-15T06:31:48;12.40;99.90
46440;DHT22;32138;50.966;6.968;2024-02-15T06:33:37;12.40;99.90
46440;DHT22;32138;50.966;6.968;2024-02-15T06:35:27;12.40;99.90
46440;DHT22;32138;50.966;6.968;2024-02-15T06:37:37;12.30;99.90
46440;DHT22;32138;50.966;6.968;2024-02-15T06:39:27;12.50;99.90
46440;DHT22;32138;50.966;6.968;2024-02-15T06:41:13;12.40;99.90
46440;DHT22;32138;50.966;6.968;2024-02-15T06:42:44;12.30;99.90
46440;DHT22;32138;50.966;6.968;2024-02-15T06:44:15;12.40;99.90
46440;DHT22;32138;50.966;6.968;2024-02-15T06:45:45;12.40;99.90
46440;DHT22;32138;50.966;6.968;2024-02-15T06:47:17;12.50;99.90
46440;DHT22;32138;50.966;6.968;2024-02-15T06:48:49;12.50;99.90
46440;DHT22;32138;50.966;6.968;2024-02-15T06:50:20;12.60;99.90
46440;DHT22;32138;50.966;6.968;2024-02-15T06:51:51;12.60;99.90
46440;DHT22;32138;50.966;6.968;2024-02-15T06:53:22;12.50;99.90
46440;DHT22;32138;50.966;6.968;2024-02-15T06:54:53;12.50;99.90
46440;DHT22;32138;50.966;6.968;2024-02-15T06:56:24;12.40;99.90
46440;DHT22;32138;50.966;6.968;2024-02-15T06:57:55;12.50;99.90
46440;DHT22;32138;50.966;6.968;2024-02-15T06:59:25;12.40;99.90
46440;DHT22;32138;50.966;6.968;2024-02-15T07:00:56;12.40;99.90
46440;DHT22;32138;50.966;6.968;2024-02-15T07:02:27;12.40;99.90
46440;DHT22;32138;50.966;6.968;2024-02-15T07:03:59;12.40;99.90
46440;DHT22;32138;50.966;6.968;2024-02-15T07:05:30;12.50;99.90
46440;DHT22;32138;50.966;6.968;2024-02-15T07:07:01;12.40;99.90
46440;DHT22;32138;50.966;6.968;2024-02-15T07:08:33;12.50;99.90
46440;DHT22;32138;50.966;6.968;2024-02-15T07:10:04;12.40;99.90
46440;DHT22;32138;50.966;6.968;2024-02-15T07:11:36;12.40;99.90
46440;DHT22;32138;50.966;6.968;2024-02-15T07:13:06;12.50;99.90
46440;DHT22;32138;50.966;6.968;2024-02-15T07:14:37;12.40;99.90
46440;DHT22;32138;50.966;6.968;2024-02-15T07:16:08;12.40;99.90
46440;DHT22;32138;50.966;6.968;2024-02-15T07:17:39;12.50;99.90
46440;DHT22;32138;50.966;6.968;2024-02-15T07:19:10;12.50;99.90
46440;DHT22;32138;50.966;6.968;2024-02-15T07:20:41;12.50;99.90
46440;DHT22;32138;50.966;6.968;2024-02-15T07:22:12;12.50;99.90
46440;DHT22;32138;50.966;6.968;2024-02-15T07:23:43;12.50;99.90
46440;DHT22;32138;50.966;6.968;2024-02-15T07:25:13;12.50;99.90
46440;DHT22;32138;50.966;6.968;2024-02-15T07:26:44;12.50;99.90
46440;DHT22;32138;50.966;6.968;2024-02-15T07:28:15;12.60;99.90
46440;DHT22;32138;50.966;6.968;2024-02-15T07:29:46;12.60;99.90
46440;DHT22;32138;50.966;6.968;2024-02-15T07:31:17;12.60;99.90
46440;DHT22;32138;50.966;6.968;2024-02-15T07:32:49;12.50;99.90
46440;DHT22;32138;50.966;6.968;2024-02-15T07:34:20;12.60;99.90
46440;DHT22;32138;50.966;6.968;2024-02-15T07:35:51;12.60;99.90
46440;DHT22;32138;50.966;6.968;2024-02-15T07:37:21;12.60;99.90
46440;DHT22;32138;50.966;6.968;2024-02-15T07:38:56;12.60;99.90
46440;DHT22;32138;50.966;6.968;2024-02-15T07:40:31;12.70;99.90
46440;DHT22;32138;50.966;6.968;2024-02-15T07:42:02;12.70;99.90
46440;DHT22;32138;50.966;6.968;2024-02-15T07:43:35;12.70;99.90
46440;DHT22;32138;50.966;6.968;2024-02-15T07:45:06;12.80;99.90
46440;DHT22;32138;50.966;6.968;2024-02-15T07:46:37;12.70;99.90
46440;DHT22;32138;50.966;6.968;2024-02-15T07:48:09;12.70;99.90
46440;DHT22;32138;50.966;6.968;2024-02-15T07:49:41;12.60;99.90
46440;DHT22;32138;50.966;6.968;2024-02-15T07:51:13;12.60;99.90
46440;DHT22;32138;50.966;6.968;2024-02-15T07:52:46;12.60;99.90
46440;DHT22;32138;50.966;6.968;2024-02-15T07:54:17;12.50;99.90
46440;DHT22;32138;50.966;6.968;2024-02-15T07:55:48;12.60;99.90
46440;DHT22;32138;50.966;6.968;2024-02-15T07:57:20;12.50;99.90
46440;DHT22;32138;50.966;6.968;2024-02-15T07:58:51;12.50;99.90
46440;DHT22;32138;50.966;6.968;2024-02-15T08:00:22;12.50;99.90
46440;DHT22;32138;50.966;6.968;2024-02-15T08:01:53;12.50;99.90
46440;DHT22;32138;50.966;6.968;2024-02-15T08:03:23;12.40;99.90
46440;DHT22;32138;50.966;6.968;2024-02-15T08:04:55;12.40;99.90
46440;DHT22;32138;50.966;6.968;2024-02-15T08:06:26;12.40;99.90
46440;DHT22;32138;50.966;6.968;2024-02-15T08:07:58;12.50;99.90
46440;DHT22;32138;50.966;6.968;2024-02-15T08:09:29;12.50;99.90
46440;DHT22;32138;50.966;6.968;2024-02-15T08:11:00;12.40;99.90
46440;DHT22;32138;50.966;6.968;2024-02-15T08:12:32;12.40;99.90
46440;DHT22;32138;50.966;6.968;2024-02-15T08:14:03;12.30;99.90
46440;DHT22;32138;50.966;6.968;2024-02-15T08:15:35;12.40;99.90
46440;DHT22;32138;50.966;6.968;2024-02-15T08:17:05;12.40;99.90
46440;DHT22;32138;50.966;6.968;2024-02-15T08:18:39;12.40;99.90
46440;DHT22;32138;50.966;6.968;2024-02-15T08:20:13;12.30;99.90
46440;DHT22;32138;50.966;6.968;2024-02-15T08:21:44;12.30;99.90
46440;DHT22;32138;50.966;6.968;2024-02-15T08:23:20;12.30;99.90
46440;DHT22;32138;50.966;6.968;2024-02-15T08:24:52;12.20;99.90
46440;DHT22;32138;50.966;6.968;2024-02-15T08:26:23;12.20;99.90
46440;DHT22;32138;50.966;6.968;2024-02-15T08:27:54;12.20;99.90
46440;DHT22;32138;50.966;6.968;2024-02-15T08:29:25;12.20;99.90
46440;DHT22;32138;50.966;6.968;2024-02-15T08:30:56;12.20;99.90
46440;DHT22;32138;50.966;6.968;2024-02-15T08:32:27;12.30;99.90
46440;DHT22;32138;50.966;6.968;2024-02-15T08:33:58;12.30;99.90
46440;DHT22;32138;50.966;6.968;2024-02-15T08:35:29;12.30;99.90
46440;DHT22;32138;50.966;6.968;2024-02-15T08:36:59;12.30;99.90
46440;DHT22;32138;50.966;6.968;2024-02-15T08:38:30;12.30;99.90
46440;DHT22;32138;50.966;6.968;2024-02-15T08:40:03;12.50;99.90
46440;DHT22;32138;50.966;6.968;2024-02-15T08:41:40;12.70;99.90
46440;DHT22;32138;50.966;6.968;2024-02-15T08:43:11;12.80;99.90
46440;DHT22;32138;50.966;6.968;2024-02-15T08:44:42;12.60;99.90
46440;DHT22;32138;50.966;6.968;2024-02-15T08:46:13;12.80;99.90
46440;DHT22;32138;50.966;6.968;2024-02-15T08:47:44;13.00;99.90
46440;DHT22;32138;50.966;6.968;2024-02-15T08:49:16;12.90;99.90
46440;DHT22;32138;50.966;6.968;2024-02-15T08:50:47;12.80;99.90
46440;DHT22;32138;50.966;6.968;2024-02-15T08:52:17;12.90;99.90
46440;DHT22;32138;50.966;6.968;2024-02-15T08:53:48;12.70;99.90
46440;DHT22;32138;50.966;6.968;2024-02-15T08:55:19;12.80;99.90
46440;DHT22;32138;50.966;6.968;2024-02-15T08:56:54;12.80;99.90
46440;DHT22;32138;50.966;6.968;2024-02-15T08:58:25;12.90;99.90
46440;DHT22;32138;50.966;6.968;2024-02-15T08:59:57;12.70;99.90
46440;DHT22;32138;50.966;6.968;2024-02-15T09:01:27;12.50;99.90
46440;DHT22;32138;50.966;6.968;2024-02-15T09:02:58;12.50;99.90
46440;DHT22;32138;50.966;6.968;2024-02-15T09:04:29;12.50;99.90
46440;DHT22;32138;50.966;6.968;2024-02-15T09:06:00;12.60;99.90
46440;DHT22;32138;50.966;6.968;2024-02-15T09:07:34;12.60;99.90
46440;DHT22;32138;50.966;6.968;2024-02-15T09:09:06;12.60;99.90
46440;DHT22;32138;50.966;6.968;2024-02-15T09:10:37;12.60;99.90
46440;DHT22;32138;50.966;6.968;2024-02-15T09:12:09;12.60;99.90
46440;DHT22;32138;50.966;6.968;2024-02-15T09:13:40;12.70;99.90
46440;DHT22;32138;50.966;6.968;2024-02-15T09:15:11;12.70;99.90
46440;DHT22;32138;50.966;6.968;2024-02-15T09:16:41;12.70;99.90
46440;DHT22;32138;50.966;6.968;2024-02-15T09:18:12;12.80;99.90
46440;DHT22;32138;50.966;6.968;2024-02-15T09:19:43;12.80;99.90
46440;DHT22;32138;50.966;6.968;2024-02-15T09:21:13;12.90;99.90
46440;DHT22;32138;50.966;6.968;2024-02-15T09:22:51;13.10;99.90
46440;DHT22;32138;50.966;6.968;2024-02-15T09:24:22;13.20;99.90
46440;DHT22;32138;50.966;6.968;2024-02-15T09:25:55;13.20;99.90
46440;DHT22;32138;50.966;6.968;2024-02-15T09:27:26;13.20;99.90
46440;DHT22;32138;50.966;6.968;2024-02-15T09:28:57;13.40;99.90
46440;DHT22;32138;50.966;6.968;2024-02-15T09:30:28;13.30;99.90
46440;DHT22;32138;50.966;6.968;2024-02-15T09:31:59;13.30;99.90
46440;DHT22;32138;50.966;6.968;2024-02-15T09:33:33;13.30;99.90
46440;DHT22;32138;50.966;6.968;2024-02-15T09:35:05;13.30;99.90
46440;DHT22;32138;50.966;6.968;2024-02-15T09:36:40;13.30;99.90
46440;DHT22;32138;50.966;6.968;2024-02-15T09:38:10;13.10;99.90
46440;DHT22;32138;50.966;6.968;2024-02-15T09:39:41;13.10;99.90
46440;DHT22;32138;50.966;6.968;2024-02-15T09:41:12;13.10;99.90
46440;DHT22;32138;50.966;6.968;2024-02-15T09:42:43;13.10;99.90
46440;DHT22;32138;50.966;6.968;2024-02-15T09:44:15;13.10;99.90